sensor_id;sensor_type;location;lat;lon;timestamp;temperature;humidity
37242;DHT22;23135;51.078;12.108;2023-03-01T00:01:12;-3.10;99.90
37242;DHT22;23135;51.078;12.108;2023-03-01T00:03:38;-3.10;99.90
37242;DHT22;23135;51.078;12.108;2023-03-01T00:06:05;-3.10;99.90
37242;DHT22;23135;51.078;12.108;2023-03-01T00:08:31;-3.10;99.90
37242;DHT22;23135;51.078;12.108;2023-03-01T00:11:12;-3.10;99.90
37242;DHT22;23135;51.078;12.108;2023-03-01T00:13:38;-3.10;99.90
37242;DHT22;23135;51.078;12.108;2023-03-01T00:16:04;-3.10;99.90
37242;DHT22;23135;51.078;12.108;2023-03-01T00:18:30;-3.10;99.90
37242;DHT22;23135;51.078;12.108;2023-03-01T00:20:56;-3.10;99.90
37242;DHT22;23135;51.078;12.108;2023-03-01T00:23:22;-3.00;99.90
37242;DHT22;23135;51.078;12.108;2023-03-01T00:25:49;-3.10;99.90
37242;DHT22;23135;51.078;12.108;2023-03-01T00:28:15;-3.20;99.90
37242;DHT22;23135;51.078;12.108;2023-03-01T00:30:41;-3.20;99.90
37242;DHT22;23135;51.078;12.108;2023-03-01T00:33:06;-3.20;99.90
37242;DHT22;23135;51.078;12.108;2023-03-01T00:35:33;-3.20;99.90
37242;DHT22;23135;51.078;12.108;2023-03-01T00:37:58;-3.30;99.90
37242;DHT22;23135;51.078;12.108;2023-03-01T00:40:25;-3.30;99.90
37242;DHT22;23135;51.078;12.108;2023-03-01T00:42:51;-3.40;99.90
37242;DHT22;23135;51.078;12.108;2023-03-01T00:45:17;-3.40;99.90
37242;DHT22;23135;51.078;12.108;2023-03-01T00:47:43;-3.40;99.90
37242;DHT22;23135;51.078;12.108;2023-03-01T00:50:09;-3.40;99.90
37242;DHT22;23135;51.078;12.108;2023-03-01T00:52:35;-3.40;99.90
37242;DHT22;23135;51.078;12.108;2023-03-01T00:55:01;-3.50;99.90
37242;DHT22;23135;51.078;12.108;2023-03-01T00:57:27;-3.50;99.90
37242;DHT22;23135;51.078;12.108;2023-03-01T00:59:52;-3.50;99.90
37242;DHT22;23135;51.078;12.108;2023-03-01T01:02:19;-3.60;99.90
37242;DHT22;23135;51.078;12.108;2023-03-01T01:04:45;-3.60;99.90
37242;DHT22;23135;51.078;12.108;2023-03-01T01:07:11;-3.60;99.90
37242;DHT22;23135;51.078;12.108;2023-03-01T01:09:36;-3.60;99.90
37242;DHT22;23135;51.078;12.108;2023-03-01T01:12:03;-3.70;99.90
37242;DHT22;23135;51.078;12.108;2023-03-01T01:14:29;-3.70;99.90
37242;DHT22;23135;51.078;12.108;2023-03-01T01:16:55;-3.70;99.90
37242;DHT22;23135;51.078;12.108;2023-03-01T01:19:21;-3.80;99.90
37242;DHT22;23135;51.078;12.108;2023-03-01T01:21:47;-3.80;99.90
37242;DHT22;23135;51.078;12.108;2023-03-01T01:24:14;-3.80;99.90
37242;DHT22;23135;51.078;12.108;2023-03-01T01:26:40;-3.80;99.90
37242;DHT22;23135;51.078;12.108;2023-03-01T01:29:06;-3.90;99.90
37242;DHT22;23135;51.078;12.108;2023-03-01T01:31:34;-3.90;99.90
37242;DHT22;23135;51.078;12.108;2023-03-01T01:34:01;-3.90;99.90
37242;DHT22;23135;51.078;12.108;2023-03-01T01:36:27;-4.00;99.90
37242;DHT22;23135;51.078;12.108;2023-03-01T01:38:53;-4.00;99.90
37242;DHT22;23135;51.078;12.108;2023-03-01T01:41:19;-4.00;99.90
37242;DHT22;23135;51.078;12.108;2023-03-01T01:43:48;-4.10;99.90
37242;DHT22;23135;51.078;12.108;2023-03-01T01:46:21;-4.10;99.90
37242;DHT22;23135;51.078;12.108;2023-03-01T01:48:54;-4.10;99.90
37242;DHT22;23135;51.078;12.108;2023-03-01T01:51:24;-4.10;99.90
37242;DHT22;23135;51.078;12.108;2023-03-01T01:53:55;-4.10;99.90
37242;DHT22;23135;51.078;12.108;2023-03-01T01:56:24;-4.20;99.90
37242;DHT22;23135;51.078;12.108;2023-03-01T01:58:51;-4.20;99.90
37242;DHT22;23135;51.078;12.108;2023-03-01T02:01:18;-4.20;99.90
37242;DHT22;23135;51.078;12.108;2023-03-01T02:03:44;-4.10;99.90
37242;DHT22;23135;51.078;12.108;2023-03-01T02:09:03;-4.00;99.90
37242;DHT22;23135;51.078;12.108;2023-03-01T02:11:31;-4.00;99.90
37242;DHT22;23135;51.078;12.108;2023-03-01T02:13:57;-4.00;99.90
37242;DHT22;23135;51.078;12.108;2023-03-01T02:16:23;-4.00;99.90
37242;DHT22;23135;51.078;12.108;2023-03-01T02:18:49;-4.00;99.90
37242;DHT22;23135;51.078;12.108;2023-03-01T02:26:41;-4.10;99.90
37242;DHT22;23135;51.078;12.108;2023-03-01T02:29:07;-4.00;99.90
37242;DHT22;23135;51.078;12.108;2023-03-01T02:31:33;-4.00;99.90
37242;DHT22;23135;51.078;12.108;2023-03-01T02:34:20;-4.10;99.90
37242;DHT22;23135;51.078;12.108;2023-03-01T02:36:55;-4.20;99.90
37242;DHT22;23135;51.078;12.108;2023-03-01T02:39:30;-4.30;99.90
37242;DHT22;23135;51.078;12.108;2023-03-01T02:41:57;-4.40;99.90
37242;DHT22;23135;51.078;12.108;2023-03-01T02:44:24;-4.40;99.90
37242;DHT22;23135;51.078;12.108;2023-03-01T02:46:55;-4.50;99.90
37242;DHT22;23135;51.078;12.108;2023-03-01T02:55:03;-4.50;99.90
37242;DHT22;23135;51.078;12.108;2023-03-01T02:57:31;-4.50;99.90
37242;DHT22;23135;51.078;12.108;2023-03-01T03:00:02;-4.60;99.90
37242;DHT22;23135;51.078;12.108;2023-03-01T03:02:32;-4.70;99.90
37242;DHT22;23135;51.078;12.108;2023-03-01T03:05:03;-4.70;99.90
37242;DHT22;23135;51.078;12.108;2023-03-01T03:07:32;-4.70;99.90
37242;DHT22;23135;51.078;12.108;2023-03-01T03:09:58;-4.70;99.90
37242;DHT22;23135;51.078;12.108;2023-03-01T03:12:24;-4.70;99.90
37242;DHT22;23135;51.078;12.108;2023-03-01T03:14:49;-4.70;99.90
37242;DHT22;23135;51.078;12.108;2023-03-01T03:17:15;-4.80;99.90
37242;DHT22;23135;51.078;12.108;2023-03-01T03:19:40;-4.70;99.90
37242;DHT22;23135;51.078;12.108;2023-03-01T03:22:06;-4.80;99.90
37242;DHT22;23135;51.078;12.108;2023-03-01T03:24:34;-4.70;99.90
37242;DHT22;23135;51.078;12.108;2023-03-01T03:27:04;-4.70;99.90
37242;DHT22;23135;51.078;12.108;2023-03-01T03:29:30;-4.70;99.90
37242;DHT22;23135;51.078;12.108;2023-03-01T03:31:55;-4.80;99.90
37242;DHT22;23135;51.078;12.108;2023-03-01T03:34:21;-4.90;99.90
37242;DHT22;23135;51.078;12.108;2023-03-01T03:36:46;-4.80;99.90
37242;DHT22;23135;51.078;12.108;2023-03-01T03:39:12;-4.80;99.90
37242;DHT22;23135;51.078;12.108;2023-03-01T03:41:37;-4.80;99.90
37242;DHT22;23135;51.078;12.108;2023-03-01T03:44:03;-4.80;99.90
37242;DHT22;23135;51.078;12.108;2023-03-01T03:46:29;-4.80;99.90
37242;DHT22;23135;51.078;12.108;2023-03-01T03:48:54;-4.80;99.90
37242;DHT22;23135;51.078;12.108;2023-03-01T03:51:20;-4.80;99.90
37242;DHT22;23135;51.078;12.108;2023-03-01T03:53:48;-4.70;99.90
37242;DHT22;23135;51.078;12.108;2023-03-01T03:56:14;-4.70;99.90
37242;DHT22;23135;51.078;12.108;2023-03-01T03:58:39;-4.60;99.90
37242;DHT22;23135;51.078;12.108;2023-03-01T04:01:06;-4.70;99.90
37242;DHT22;23135;51.078;12.108;2023-03-01T04:03:32;-4.60;99.90
37242;DHT22;23135;51.078;12.108;2023-03-01T04:05:59;-4.60;99.90
37242;DHT22;23135;51.078;12.108;2023-03-01T04:08:25;-4.70;99.90
37242;DHT22;23135;51.078;12.108;2023-03-01T04:10:55;-4.70;99.90
37242;DHT22;23135;51.078;12.108;2023-03-01T04:13:22;-4.70;99.90
37242;DHT22;23135;51.078;12.108;2023-03-01T04:15:51;-4.80;99.90
37242;DHT22;23135;51.078;12.108;2023-03-01T04:18:18;-4.70;99.90
37242;DHT22;23135;51.078;12.108;2023-03-01T04:20:45;-4.70;99.90
37242;DHT22;23135;51.078;12.108;2023-03-01T04:23:16;-4.70;99.90
37242;DHT22;23135;51.078;12.108;2023-03-01T04:25:56;-4.60;99.90
37242;DHT22;23135;51.078;12.108;2023-03-01T04:30:51;-4.70;99.90
37242;DHT22;23135;51.078;12.108;2023-03-01T04:33:17;-4.70;99.90
37242;DHT22;23135;51.078;12.108;2023-03-01T04:35:43;-4.70;99.90
37242;DHT22;23135;51.078;12.108;2023-03-01T04:38:09;-4.70;99.90
37242;DHT22;23135;51.078;12.108;2023-03-01T04:40:35;-4.70;99.90
37242;DHT22;23135;51.078;12.108;2023-03-01T04:43:02;-4.80;99.90
37242;DHT22;23135;51.078;12.108;2023-03-01T04:45:28;-4.70;99.90
37242;DHT22;23135;51.078;12.108;2023-03-01T04:47:54;-4.80;99.90
37242;DHT22;23135;51.078;12.108;2023-03-01T04:50:19;-4.80;99.90
37242;DHT22;23135;51.078;12.108;2023-03-01T04:52:49;-4.80;99.90
37242;DHT22;23135;51.078;12.108;2023-03-01T04:55:15;-4.80;99.90
37242;DHT22;23135;51.078;12.108;2023-03-01T04:57:41;-4.80;99.90
37242;DHT22;23135;51.078;12.108;2023-03-01T05:00:09;-4.80;99.90
37242;DHT22;23135;51.078;12.108;2023-03-01T05:02:56;-4.90;99.90
37242;DHT22;23135;51.078;12.108;2023-03-01T05:05:28;-4.90;99.90
37242;DHT22;23135;51.078;12.108;2023-03-01T05:07:58;-4.80;99.90
37242;DHT22;23135;51.078;12.108;2023-03-01T05:10:25;-4.90;99.90
37242;DHT22;23135;51.078;12.108;2023-03-01T05:12:51;-4.90;99.90
37242;DHT22;23135;51.078;12.108;2023-03-01T05:15:20;-4.90;99.90
37242;DHT22;23135;51.078;12.108;2023-03-01T05:17:51;-4.90;99.90
37242;DHT22;23135;51.078;12.108;2023-03-01T05:20:17;-4.90;99.90
37242;DHT22;23135;51.078;12.108;2023-03-01T05:22:43;-4.90;99.90
37242;DHT22;23135;51.078;12.108;2023-03-01T05:25:08;-5.00;99.90
37242;DHT22;23135;51.078;12.108;2023-03-01T05:27:35;-5.10;99.90
37242;DHT22;23135;51.078;12.108;2023-03-01T05:30:01;-5.10;99.90
37242;DHT22;23135;51.078;12.108;2023-03-01T05:32:40;-5.10;99.90
37242;DHT22;23135;51.078;12.108;2023-03-01T05:35:06;-5.10;99.90
37242;DHT22;23135;51.078;12.108;2023-03-01T05:37:32;-5.10;99.90
37242;DHT22;23135;51.078;12.108;2023-03-01T05:39:58;-5.10;99.90
37242;DHT22;23135;51.078;12.108;2023-03-01T05:42:23;-5.20;99.90
37242;DHT22;23135;51.078;12.108;2023-03-01T05:44:49;-5.20;99.90
37242;DHT22;23135;51.078;12.108;2023-03-01T05:47:14;-5.20;99.90
37242;DHT22;23135;51.078;12.108;2023-03-01T05:49:40;-5.30;99.90
37242;DHT22;23135;51.078;12.108;2023-03-01T05:52:05;-5.40;99.90
37242;DHT22;23135;51.078;12.108;2023-03-01T05:54:33;-5.40;99.90
37242;DHT22;23135;51.078;12.108;2023-03-01T05:56:58;-5.40;99.90
37242;DHT22;23135;51.078;12.108;2023-03-01T05:59:24;-5.40;99.90
37242;DHT22;23135;51.078;12.108;2023-03-01T06:01:49;-5.50;99.90
37242;DHT22;23135;51.078;12.108;2023-03-01T06:04:15;-5.40;99.90
37242;DHT22;23135;51.078;12.108;2023-03-01T06:06:41;-5.50;99.90
37242;DHT22;23135;51.078;12.108;2023-03-01T06:09:07;-5.50;99.90
37242;DHT22;23135;51.078;12.108;2023-03-01T06:11:35;-5.50;99.90
37242;DHT22;23135;51.078;12.108;2023-03-01T06:14:01;-5.50;99.90
37242;DHT22;23135;51.078;12.108;2023-03-01T06:16:26;-5.40;99.90
37242;DHT22;23135;51.078;12.108;2023-03-01T06:18:52;-5.30;99.90
37242;DHT22;23135;51.078;12.108;2023-03-01T06:21:17;-5.20;99.90
37242;DHT22;23135;51.078;12.108;2023-03-01T06:23:43;-5.10;99.90
37242;DHT22;23135;51.078;12.108;2023-03-01T06:26:09;-5.10;99.90
37242;DHT22;23135;51.078;12.108;2023-03-01T06:28:36;-5.00;99.90
37242;DHT22;23135;51.078;12.108;2023-03-01T06:31:02;-5.00;99.90
37242;DHT22;23135;51.078;12.108;2023-03-01T06:33:28;-5.00;99.90
37242;DHT22;23135;51.078;12.108;2023-03-01T06:35:56;-5.00;99.90
37242;DHT22;23135;51.078;12.108;2023-03-01T06:38:23;-4.90;99.90
37242;DHT22;23135;51.078;12.108;2023-03-01T06:40:55;-4.90;99.90
37242;DHT22;23135;51.078;12.108;2023-03-01T06:43:22;-4.90;99.90
37242;DHT22;23135;51.078;12.108;2023-03-01T06:45:48;-4.90;99.90
37242;DHT22;23135;51.078;12.108;2023-03-01T06:48:14;-4.90;99.90
37242;DHT22;23135;51.078;12.108;2023-03-01T06:50:40;-4.90;99.90
37242;DHT22;23135;51.078;12.108;2023-03-01T06:53:05;-4.80;99.90
37242;DHT22;23135;51.078;12.108;2023-03-01T06:55:31;-4.80;99.90
37242;DHT22;23135;51.078;12.108;2023-03-01T06:57:58;-4.70;99.90
37242;DHT22;23135;51.078;12.108;2023-03-01T07:00:25;-4.70;99.90
37242;DHT22;23135;51.078;12.108;2023-03-01T07:02:52;-4.60;99.90
37242;DHT22;23135;51.078;12.108;2023-03-01T07:05:18;-4.60;99.90
37242;DHT22;23135;51.078;12.108;2023-03-01T07:07:43;-4.50;99.90
37242;DHT22;23135;51.078;12.108;2023-03-01T07:10:09;-4.40;99.90
37242;DHT22;23135;51.078;12.108;2023-03-01T07:12:35;-4.30;99.90
37242;DHT22;23135;51.078;12.108;2023-03-01T07:15:01;-4.20;99.90
37242;DHT22;23135;51.078;12.108;2023-03-01T07:17:26;-4.10;99.90
37242;DHT22;23135;51.078;12.108;2023-03-01T07:19:52;-3.90;99.90
37242;DHT22;23135;51.078;12.108;2023-03-01T07:22:18;-3.80;99.90
37242;DHT22;23135;51.078;12.108;2023-03-01T07:24:43;-3.70;99.90
37242;DHT22;23135;51.078;12.108;2023-03-01T07:27:09;-3.60;99.90
37242;DHT22;23135;51.078;12.108;2023-03-01T07:29:35;-3.40;99.90
37242;DHT22;23135;51.078;12.108;2023-03-01T07:32:04;-3.20;99.90
37242;DHT22;23135;51.078;12.108;2023-03-01T07:34:30;-3.10;99.90
37242;DHT22;23135;51.078;12.108;2023-03-01T07:36:55;-3.00;99.90
37242;DHT22;23135;51.078;12.108;2023-03-01T07:39:21;-2.90;99.90
37242;DHT22;23135;51.078;12.108;2023-03-01T07:41:48;-2.90;99.90
37242;DHT22;23135;51.078;12.108;2023-03-01T07:44:14;-2.80;99.90
37242;DHT22;23135;51.078;12.108;2023-03-01T07:46:40;-2.70;99.90
37242;DHT22;23135;51.078;12.108;2023-03-01T07:49:06;-2.70;99.90
37242;DHT22;23135;51.078;12.108;2023-03-01T07:51:31;-2.60;99.90
37242;DHT22;23135;51.078;12.108;2023-03-01T07:53:57;-2.50;99.90
37242;DHT22;23135;51.078;12.108;2023-03-01T07:56:23;-2.50;99.90
37242;DHT22;23135;51.078;12.108;2023-03-01T07:58:48;-2.40;99.90
37242;DHT22;23135;51.078;12.108;2023-03-01T08:01:17;-2.20;99.90
37242;DHT22;23135;51.078;12.108;2023-03-01T08:03:43;-2.10;99.90
37242;DHT22;23135;51.078;12.108;2023-03-01T08:06:10;-1.80;99.90
37242;DHT22;23135;51.078;12.108;2023-03-01T08:08:36;-1.40;99.90
37242;DHT22;23135;51.078;12.108;2023-03-01T08:11:03;-1.10;99.90
37242;DHT22;23135;51.078;12.108;2023-03-01T08:13:30;-0.80;99.90
37242;DHT22;23135;51.078;12.108;2023-03-01T08:16:04;-0.70;99.90
37242;DHT22;23135;51.078;12.108;2023-03-01T08:18:30;-0.50;99.90
37242;DHT22;23135;51.078;12.108;2023-03-01T08:21:04;-0.20;99.90
37242;DHT22;23135;51.078;12.108;2023-03-01T08:23:30;-0.10;99.90
37242;DHT22;23135;51.078;12.108;2023-03-01T08:26:03;0.10;99.90
37242;DHT22;23135;51.078;12.108;2023-03-01T08:28:29;0.20;99.90
37242;DHT22;23135;51.078;12.108;2023-03-01T08:30:54;0.40;99.90
37242;DHT22;23135;51.078;12.108;2023-03-01T08:33:20;0.60;99.90
37242;DHT22;23135;51.078;12.108;2023-03-01T08:35:45;0.90;99.90
37242;DHT22;23135;51.078;12.108;2023-03-01T08:38:11;0.90;99.90
37242;DHT22;23135;51.078;12.108;2023-03-01T08:40:36;1.00;99.90
37242;DHT22;23135;51.078;12.108;2023-03-01T08:43:02;1.00;99.90
37242;DHT22;23135;51.078;12.108;2023-03-01T08:45:28;1.00;99.90
37242;DHT22;23135;51.078;12.108;2023-03-01T08:47:54;0.90;99.90
37242;DHT22;23135;51.078;12.108;2023-03-01T08:50:19;0.80;99.90
37242;DHT22;23135;51.078;12.108;2023-03-01T08:52:45;0.80;99.90
37242;DHT22;23135;51.078;12.108;2023-03-01T08:55:10;0.90;99.90
37242;DHT22;23135;51.078;12.108;2023-03-01T08:57:36;0.90;99.90
37242;DHT22;23135;51.078;12.108;2023-03-01T09:00:02;1.00;99.90
37242;DHT22;23135;51.078;12.108;2023-03-01T09:02:28;1.00;99.90
37242;DHT22;23135;51.078;12.108;2023-03-01T09:04:54;1.00;99.90
37242;DHT22;23135;51.078;12.108;2023-03-01T09:07:19;1.00;99.90
37242;DHT22;23135;51.078;12.108;2023-03-01T09:09:46;1.10;99.90
37242;DHT22;23135;51.078;12.108;2023-03-01T09:12:12;1.10;99.90
37242;DHT22;23135;51.078;12.108;2023-03-01T09:14:38;1.20;99.90
37242;DHT22;23135;51.078;12.108;2023-03-01T09:17:04;1.30;99.90
37242;DHT22;23135;51.078;12.108;2023-03-01T09:19:30;1.30;99.90
37242;DHT22;23135;51.078;12.108;2023-03-01T09:21:55;1.40;99.90
37242;DHT22;23135;51.078;12.108;2023-03-01T09:24:24;1.50;99.90
37242;DHT22;23135;51.078;12.108;2023-03-01T09:26:53;1.60;99.90
37242;DHT22;23135;51.078;12.108;2023-03-01T09:29:19;1.70;99.90
37242;DHT22;23135;51.078;12.108;2023-03-01T09:31:44;1.70;99.90
37242;DHT22;23135;51.078;12.108;2023-03-01T09:34:10;1.70;99.90
37242;DHT22;23135;51.078;12.108;2023-03-01T09:36:36;1.80;99.90
37242;DHT22;23135;51.078;12.108;2023-03-01T09:39:02;1.90;99.90
37242;DHT22;23135;51.078;12.108;2023-03-01T09:41:58;2.00;99.90
37242;DHT22;23135;51.078;12.108;2023-03-01T09:44:42;2.00;99.90
37242;DHT22;23135;51.078;12.108;2023-03-01T09:47:21;2.10;99.90
37242;DHT22;23135;51.078;12.108;2023-03-01T09:50:06;2.20;99.90
37242;DHT22;23135;51.078;12.108;2023-03-01T09:58:53;2.60;99.90
37242;DHT22;23135;51.078;12.108;2023-03-01T10:06:48;2.80;99.90
37242;DHT22;23135;51.078;12.108;2023-03-01T10:09:16;2.90;99.90
37242;DHT22;23135;51.078;12.108;2023-03-01T10:11:47;2.90;99.90
37242;DHT22;23135;51.078;12.108;2023-03-01T10:14:38;2.90;99.90
37242;DHT22;23135;51.078;12.108;2023-03-01T10:19:46;3.20;99.90
37242;DHT22;23135;51.078;12.108;2023-03-01T10:22:28;3.30;99.90
37242;DHT22;23135;51.078;12.108;2023-03-01T10:24:56;3.50;99.90
37242;DHT22;23135;51.078;12.108;2023-03-01T10:27:33;3.60;99.90
37242;DHT22;23135;51.078;12.108;2023-03-01T10:32:42;3.70;99.90
37242;DHT22;23135;51.078;12.108;2023-03-01T10:35:19;3.70;99.90
37242;DHT22;23135;51.078;12.108;2023-03-01T10:38:04;3.70;99.90
37242;DHT22;23135;51.078;12.108;2023-03-01T10:40:32;3.70;99.90
37242;DHT22;23135;51.078;12.108;2023-03-01T10:43:01;3.60;99.90
37242;DHT22;23135;51.078;12.108;2023-03-01T10:45:38;3.70;99.90
37242;DHT22;23135;51.078;12.108;2023-03-01T10:48:19;3.90;99.90
37242;DHT22;23135;51.078;12.108;2023-03-01T10:51:12;3.90;99.90
37242;DHT22;23135;51.078;12.108;2023-03-01T10:53:57;3.90;99.90
37242;DHT22;23135;51.078;12.108;2023-03-01T10:56:22;3.90;99.90
37242;DHT22;23135;51.078;12.108;2023-03-01T10:59:04;3.90;99.90
37242;DHT22;23135;51.078;12.108;2023-03-01T11:01:35;3.90;99.90
37242;DHT22;23135;51.078;12.108;2023-03-01T11:06:39;3.90;99.90
37242;DHT22;23135;51.078;12.108;2023-03-01T11:09:22;4.00;99.90
37242;DHT22;23135;51.078;12.108;2023-03-01T11:11:56;4.00;99.90
37242;DHT22;23135;51.078;12.108;2023-03-01T11:14:24;4.10;99.90
37242;DHT22;23135;51.078;12.108;2023-03-01T11:19:37;4.20;99.90
37242;DHT22;23135;51.078;12.108;2023-03-01T11:22:12;4.20;99.90
37242;DHT22;23135;51.078;12.108;2023-03-01T11:24:50;4.10;99.90
37242;DHT22;23135;51.078;12.108;2023-03-01T11:27:26;4.10;99.90
37242;DHT22;23135;51.078;12.108;2023-03-01T11:32:25;4.20;99.90
37242;DHT22;23135;51.078;12.108;2023-03-01T11:35:04;4.40;99.90
37242;DHT22;23135;51.078;12.108;2023-03-01T11:37:59;4.40;99.90
37242;DHT22;23135;51.078;12.108;2023-03-01T11:40:33;4.40;99.90
37242;DHT22;23135;51.078;12.108;2023-03-01T11:43:28;4.40;99.90
37242;DHT22;23135;51.078;12.108;2023-03-01T11:51:41;4.70;99.90
37242;DHT22;23135;51.078;12.108;2023-03-01T11:56:41;4.70;99.90
37242;DHT22;23135;51.078;12.108;2023-03-01T11:59:13;4.80;99.90
37242;DHT22;23135;51.078;12.108;2023-03-01T12:01:55;4.70;99.90
37242;DHT22;23135;51.078;12.108;2023-03-01T12:10:27;5.00;99.90
37242;DHT22;23135;51.078;12.108;2023-03-01T12:13:05;5.10;99.90
37242;DHT22;23135;51.078;12.108;2023-03-01T12:15:54;5.10;99.90
37242;DHT22;23135;51.078;12.108;2023-03-01T12:18:44;5.20;99.90
37242;DHT22;23135;51.078;12.108;2023-03-01T12:23:49;5.70;99.90
37242;DHT22;23135;51.078;12.108;2023-03-01T12:29:25;5.90;99.90
37242;DHT22;23135;51.078;12.108;2023-03-01T12:32:22;5.90;99.90
37242;DHT22;23135;51.078;12.108;2023-03-01T12:38:07;6.20;99.90
37242;DHT22;23135;51.078;12.108;2023-03-01T12:44:15;6.30;99.90
37242;DHT22;23135;51.078;12.108;2023-03-01T12:46:53;6.40;99.90
37242;DHT22;23135;51.078;12.108;2023-03-01T12:49:45;6.40;99.90
37242;DHT22;23135;51.078;12.108;2023-03-01T12:52:23;6.40;99.90
37242;DHT22;23135;51.078;12.108;2023-03-01T12:54:55;6.50;99.90
37242;DHT22;23135;51.078;12.108;2023-03-01T12:57:38;6.60;99.90
37242;DHT22;23135;51.078;12.108;2023-03-01T13:00:22;6.40;99.90
37242;DHT22;23135;51.078;12.108;2023-03-01T13:11:11;6.60;99.90
37242;DHT22;23135;51.078;12.108;2023-03-01T13:13:39;6.50;99.90
37242;DHT22;23135;51.078;12.108;2023-03-01T13:19:24;6.40;99.60
37242;DHT22;23135;51.078;12.108;2023-03-01T13:21:51;6.50;99.10
37242;DHT22;23135;51.078;12.108;2023-03-01T13:24:39;6.50;99.90
37242;DHT22;23135;51.078;12.108;2023-03-01T13:29:51;6.70;99.90
37242;DHT22;23135;51.078;12.108;2023-03-01T13:32:34;6.60;99.70
37242;DHT22;23135;51.078;12.108;2023-03-01T13:37:44;6.50;99.60
37242;DHT22;23135;51.078;12.108;2023-03-01T13:42:44;6.70;99.90
37242;DHT22;23135;51.078;12.108;2023-03-01T13:45:34;6.70;99.90
37242;DHT22;23135;51.078;12.108;2023-03-01T13:48:11;6.60;99.30
37242;DHT22;23135;51.078;12.108;2023-03-01T13:50:47;6.60;99.90
37242;DHT22;23135;51.078;12.108;2023-03-01T13:53:18;6.70;99.70
37242;DHT22;23135;51.078;12.108;2023-03-01T13:55:51;6.70;99.80
37242;DHT22;23135;51.078;12.108;2023-03-01T14:00:56;6.60;99.90
37242;DHT22;23135;51.078;12.108;2023-03-01T14:03:21;6.50;99.90
37242;DHT22;23135;51.078;12.108;2023-03-01T14:08:26;6.60;99.40
37242;DHT22;23135;51.078;12.108;2023-03-01T14:17:14;6.50;99.90
37242;DHT22;23135;51.078;12.108;2023-03-01T14:19:47;6.40;99.00
37242;DHT22;23135;51.078;12.108;2023-03-01T14:22:20;6.30;99.90
37242;DHT22;23135;51.078;12.108;2023-03-01T14:24:50;6.30;99.50
37242;DHT22;23135;51.078;12.108;2023-03-01T14:27:17;6.20;99.90
37242;DHT22;23135;51.078;12.108;2023-03-01T14:29:43;6.20;99.90
37242;DHT22;23135;51.078;12.108;2023-03-01T14:32:25;6.20;99.90
37242;DHT22;23135;51.078;12.108;2023-03-01T14:34:51;6.30;99.90
37242;DHT22;23135;51.078;12.108;2023-03-01T14:37:34;6.40;99.90
37242;DHT22;23135;51.078;12.108;2023-03-01T14:40:02;6.50;99.80
37242;DHT22;23135;51.078;12.108;2023-03-01T14:42:34;6.50;99.20
37242;DHT22;23135;51.078;12.108;2023-03-01T14:45:01;6.50;98.50
37242;DHT22;23135;51.078;12.108;2023-03-01T14:47:34;6.40;98.00
37242;DHT22;23135;51.078;12.108;2023-03-01T14:50:46;6.40;98.90
37242;DHT22;23135;51.078;12.108;2023-03-01T14:52:58;6.40;98.00
37242;DHT22;23135;51.078;12.108;2023-03-01T14:57:52;6.40;98.20
37242;DHT22;23135;51.078;12.108;2023-03-01T15:00:22;6.50;98.40
37242;DHT22;23135;51.078;12.108;2023-03-01T15:02:51;6.40;98.60
37242;DHT22;23135;51.078;12.108;2023-03-01T15:05:22;6.40;98.40
37242;DHT22;23135;51.078;12.108;2023-03-01T15:07:51;6.40;99.40
37242;DHT22;23135;51.078;12.108;2023-03-01T15:10:24;6.30;98.70
37242;DHT22;23135;51.078;12.108;2023-03-01T15:12:50;6.30;99.20
37242;DHT22;23135;51.078;12.108;2023-03-01T15:15:33;6.30;99.00
37242;DHT22;23135;51.078;12.108;2023-03-01T15:18:13;6.20;98.90
37242;DHT22;23135;51.078;12.108;2023-03-01T15:20:39;6.20;99.10
37242;DHT22;23135;51.078;12.108;2023-03-01T15:23:05;6.30;99.10
37242;DHT22;23135;51.078;12.108;2023-03-01T15:25:32;6.20;99.30
37242;DHT22;23135;51.078;12.108;2023-03-01T15:28:00;6.20;99.90
37242;DHT22;23135;51.078;12.108;2023-03-01T15:33:25;6.00;99.50
37242;DHT22;23135;51.078;12.108;2023-03-01T15:35:57;5.90;99.60
37242;DHT22;23135;51.078;12.108;2023-03-01T15:38:36;5.90;99.90
37242;DHT22;23135;51.078;12.108;2023-03-01T15:41:37;5.90;99.90
37242;DHT22;23135;51.078;12.108;2023-03-01T15:44:26;5.70;99.90
37242;DHT22;23135;51.078;12.108;2023-03-01T15:46:52;5.60;99.90
37242;DHT22;23135;51.078;12.108;2023-03-01T15:49:34;5.50;99.90
37242;DHT22;23135;51.078;12.108;2023-03-01T15:52:01;5.50;99.90
37242;DHT22;23135;51.078;12.108;2023-03-01T15:54:27;5.40;99.90
37242;DHT22;23135;51.078;12.108;2023-03-01T15:56:53;5.30;99.90
37242;DHT22;23135;51.078;12.108;2023-03-01T15:59:19;5.20;99.90
37242;DHT22;23135;51.078;12.108;2023-03-01T16:01:45;5.10;99.90
37242;DHT22;23135;51.078;12.108;2023-03-01T16:04:15;4.90;99.90
37242;DHT22;23135;51.078;12.108;2023-03-01T16:06:53;4.70;99.90
37242;DHT22;23135;51.078;12.108;2023-03-01T16:09:23;4.60;99.90
37242;DHT22;23135;51.078;12.108;2023-03-01T16:11:50;4.40;99.90
37242;DHT22;23135;51.078;12.108;2023-03-01T16:14:16;4.20;99.90
37242;DHT22;23135;51.078;12.108;2023-03-01T16:16:42;4.10;99.90
37242;DHT22;23135;51.078;12.108;2023-03-01T16:19:08;4.00;99.90
37242;DHT22;23135;51.078;12.108;2023-03-01T16:21:33;3.90;99.90
37242;DHT22;23135;51.078;12.108;2023-03-01T16:24:00;3.70;99.90
37242;DHT22;23135;51.078;12.108;2023-03-01T16:26:25;3.60;99.90
37242;DHT22;23135;51.078;12.108;2023-03-01T16:28:55;3.40;99.90
37242;DHT22;23135;51.078;12.108;2023-03-01T16:31:21;3.30;99.90
37242;DHT22;23135;51.078;12.108;2023-03-01T16:33:47;3.10;99.90
37242;DHT22;23135;51.078;12.108;2023-03-01T16:36:17;3.00;99.90
37242;DHT22;23135;51.078;12.108;2023-03-01T16:38:43;2.90;99.90
37242;DHT22;23135;51.078;12.108;2023-03-01T16:41:14;2.80;99.90
37242;DHT22;23135;51.078;12.108;2023-03-01T16:43:40;2.70;99.90
37242;DHT22;23135;51.078;12.108;2023-03-01T16:46:14;2.60;99.90
37242;DHT22;23135;51.078;12.108;2023-03-01T16:48:39;2.50;99.90
37242;DHT22;23135;51.078;12.108;2023-03-01T16:51:06;2.40;99.90
37242;DHT22;23135;51.078;12.108;2023-03-01T16:53:35;2.30;99.90
37242;DHT22;23135;51.078;12.108;2023-03-01T16:56:03;2.30;99.90
37242;DHT22;23135;51.078;12.108;2023-03-01T16:58:29;2.20;99.90
37242;DHT22;23135;51.078;12.108;2023-03-01T17:00:55;2.10;99.90
37242;DHT22;23135;51.078;12.108;2023-03-01T17:03:23;2.00;99.90
37242;DHT22;23135;51.078;12.108;2023-03-01T17:05:49;2.00;99.90
37242;DHT22;23135;51.078;12.108;2023-03-01T17:08:15;1.90;99.90
37242;DHT22;23135;51.078;12.108;2023-03-01T17:10:41;1.80;99.90
37242;DHT22;23135;51.078;12.108;2023-03-01T17:13:08;1.80;99.90
37242;DHT22;23135;51.078;12.108;2023-03-01T17:15:34;1.80;99.90
37242;DHT22;23135;51.078;12.108;2023-03-01T17:18:00;1.70;99.90
37242;DHT22;23135;51.078;12.108;2023-03-01T17:20:26;1.60;99.90